sensor_id;sensor_type;location;lat;lon;timestamp;P1;durP1;ratioP1;P2;durP2;ratioP2
9904;SDS011;4991;43.566;27.820;2022-11-20T00:01:07;17.37;;;8.10;;
9904;SDS011;4991;43.566;27.820;2022-11-20T00:03:43;18.50;;;7.60;;
9904;SDS011;4991;43.566;27.820;2022-11-20T00:06:11;30.67;;;7.40;;
9904;SDS011;4991;43.566;27.820;2022-11-20T00:08:38;22.23;;;8.43;;
9904;SDS011;4991;43.566;27.820;2022-11-20T00:11:07;16.87;;;6.87;;
9904;SDS011;4991;43.566;27.820;2022-11-20T00:13:38;18.30;;;8.63;;
9904;SDS011;4991;43.566;27.820;2022-11-20T00:16:04;19.07;;;7.40;;
9904;SDS011;4991;43.566;27.820;2022-11-20T00:18:32;23.93;;;8.47;;
9904;SDS011;4991;43.566;27.820;2022-11-20T00:21:06;15.23;;;7.63;;
9904;SDS011;4991;43.566;27.820;2022-11-20T00:23:35;16.40;;;7.87;;
9904;SDS011;4991;43.566;27.820;2022-11-20T00:26:02;20.97;;;8.23;;
9904;SDS011;4991;43.566;27.820;2022-11-20T00:28:29;20.43;;;8.73;;
9904;SDS011;4991;43.566;27.820;2022-11-20T00:31:10;25.27;;;9.43;;
9904;SDS011;4991;43.566;27.820;2022-11-20T00:33:40;13.60;;;7.83;;
9904;SDS011;4991;43.566;27.820;2022-11-20T00:36:08;20.13;;;8.07;;
9904;SDS011;4991;43.566;27.820;2022-11-20T00:38:35;18.63;;;7.87;;
9904;SDS011;4991;43.566;27.820;2022-11-20T00:41:02;15.07;;;7.60;;
9904;SDS011;4991;43.566;27.820;2022-11-20T00:43:32;17.30;;;7.97;;
9904;SDS011;4991;43.566;27.820;2022-11-20T00:48:23;14.53;;;7.87;;
9904;SDS011;4991;43.566;27.820;2022-11-20T00:50:49;18.53;;;7.83;;
9904;SDS011;4991;43.566;27.820;2022-11-20T00:53:14;17.57;;;7.97;;
9904;SDS011;4991;43.566;27.820;2022-11-20T00:55:40;13.17;;;8.43;;
9904;SDS011;4991;43.566;27.820;2022-11-20T00:58:06;17.63;;;8.03;;
9904;SDS011;4991;43.566;27.820;2022-11-20T01:00:31;13.93;;;7.67;;
9904;SDS011;4991;43.566;27.820;2022-11-20T01:02:57;16.13;;;8.13;;
9904;SDS011;4991;43.566;27.820;2022-11-20T01:05:22;14.73;;;7.13;;
9904;SDS011;4991;43.566;27.820;2022-11-20T01:07:48;27.70;;;8.57;;
9904;SDS011;4991;43.566;27.820;2022-11-20T01:10:14;22.87;;;7.70;;
9904;SDS011;4991;43.566;27.820;2022-11-20T01:12:39;17.47;;;7.57;;
9904;SDS011;4991;43.566;27.820;2022-11-20T01:15:05;17.43;;;7.27;;
9904;SDS011;4991;43.566;27.820;2022-11-20T01:17:31;18.70;;;7.97;;
9904;SDS011;4991;43.566;27.820;2022-11-20T01:19:57;15.03;;;7.53;;
9904;SDS011;4991;43.566;27.820;2022-11-20T01:22:22;12.53;;;5.90;;
9904;SDS011;4991;43.566;27.820;2022-11-20T01:24:48;16.33;;;7.43;;
9904;SDS011;4991;43.566;27.820;2022-11-20T01:27:14;19.30;;;6.60;;
9904;SDS011;4991;43.566;27.820;2022-11-20T01:29:40;13.30;;;6.60;;
9904;SDS011;4991;43.566;27.820;2022-11-20T01:32:05;13.27;;;5.60;;
9904;SDS011;4991;43.566;27.820;2022-11-20T01:34:31;9.97;;;5.40;;
9904;SDS011;4991;43.566;27.820;2022-11-20T01:36:56;9.93;;;5.50;;
9904;SDS011;4991;43.566;27.820;2022-11-20T01:39:23;13.67;;;6.00;;
9904;SDS011;4991;43.566;27.820;2022-11-20T01:41:50;13.73;;;5.73;;
9904;SDS011;4991;43.566;27.820;2022-11-20T01:44:48;18.07;;;5.57;;
9904;SDS011;4991;43.566;27.820;2022-11-20T01:47:50;13.60;;;5.03;;
9904;SDS011;4991;43.566;27.820;2022-11-20T01:52:49;14.87;;;5.27;;
9904;SDS011;4991;43.566;27.820;2022-11-20T01:55:26;13.97;;;5.00;;
9904;SDS011;4991;43.566;27.820;2022-11-20T01:57:56;13.27;;;5.10;;
9904;SDS011;4991;43.566;27.820;2022-11-20T02:00:22;11.40;;;4.80;;
9904;SDS011;4991;43.566;27.820;2022-11-20T02:02:57;9.23;;;4.50;;
9904;SDS011;4991;43.566;27.820;2022-11-20T02:05:28;10.20;;;5.00;;
9904;SDS011;4991;43.566;27.820;2022-11-20T02:08:01;10.13;;;5.20;;
9904;SDS011;4991;43.566;27.820;2022-11-20T02:10:29;12.23;;;4.97;;
9904;SDS011;4991;43.566;27.820;2022-11-20T02:12:56;12.33;;;4.80;;
9904;SDS011;4991;43.566;27.820;2022-11-20T02:16:00;7.67;;;4.00;;
9904;SDS011;4991;43.566;27.820;2022-11-20T02:18:26;7.80;;;4.43;;
9904;SDS011;4991;43.566;27.820;2022-11-20T02:20:55;10.70;;;5.60;;
9904;SDS011;4991;43.566;27.820;2022-11-20T02:23:29;12.97;;;4.83;;
9904;SDS011;4991;43.566;27.820;2022-11-20T02:26:03;10.20;;;4.33;;
9904;SDS011;4991;43.566;27.820;2022-11-20T02:28:32;13.10;;;4.53;;
9904;SDS011;4991;43.566;27.820;2022-11-20T02:30:58;12.80;;;4.33;;
9904;SDS011;4991;43.566;27.820;2022-11-20T02:33:24;11.90;;;4.70;;
9904;SDS011;4991;43.566;27.820;2022-11-20T02:35:49;9.70;;;4.77;;
9904;SDS011;4991;43.566;27.820;2022-11-20T02:38:15;12.30;;;4.67;;
9904;SDS011;4991;43.566;27.820;2022-11-20T02:40:41;12.50;;;4.60;;
9904;SDS011;4991;43.566;27.820;2022-11-20T02:43:07;11.43;;;4.63;;
9904;SDS011;4991;43.566;27.820;2022-11-20T02:45:33;12.53;;;4.93;;
9904;SDS011;4991;43.566;27.820;2022-11-20T02:47:59;11.57;;;4.93;;
9904;SDS011;4991;43.566;27.820;2022-11-20T02:50:25;8.43;;;4.40;;
9904;SDS011;4991;43.566;27.820;2022-11-20T02:52:50;8.47;;;4.60;;
9904;SDS011;4991;43.566;27.820;2022-11-20T02:55:16;20.03;;;4.73;;
9904;SDS011;4991;43.566;27.820;2022-11-20T02:57:42;11.00;;;4.97;;
9904;SDS011;4991;43.566;27.820;2022-11-20T03:00:08;13.17;;;5.00;;
9904;SDS011;4991;43.566;27.820;2022-11-20T03:02:34;13.13;;;4.60;;
9904;SDS011;4991;43.566;27.820;2022-11-20T03:05:00;10.23;;;4.10;;
9904;SDS011;4991;43.566;27.820;2022-11-20T03:07:26;13.40;;;4.63;;
9904;SDS011;4991;43.566;27.820;2022-11-20T03:09:51;14.33;;;4.60;;
9904;SDS011;4991;43.566;27.820;2022-11-20T03:12:17;10.67;;;4.47;;
9904;SDS011;4991;43.566;27.820;2022-11-20T03:14:42;11.53;;;4.30;;
9904;SDS011;4991;43.566;27.820;2022-11-20T03:17:08;7.33;;;4.33;;
9904;SDS011;4991;43.566;27.820;2022-11-20T03:19:34;11.97;;;5.07;;
9904;SDS011;4991;43.566;27.820;2022-11-20T03:22:00;10.07;;;4.80;;
9904;SDS011;4991;43.566;27.820;2022-11-20T03:24:26;10.27;;;4.67;;
9904;SDS011;4991;43.566;27.820;2022-11-20T03:26:51;9.13;;;4.47;;
9904;SDS011;4991;43.566;27.820;2022-11-20T03:29:17;11.60;;;4.67;;
9904;SDS011;4991;43.566;27.820;2022-11-20T03:31:43;13.17;;;4.20;;
9904;SDS011;4991;43.566;27.820;2022-11-20T03:34:09;11.10;;;4.30;;
9904;SDS011;4991;43.566;27.820;2022-11-20T03:36:40;12.90;;;4.77;;
9904;SDS011;4991;43.566;27.820;2022-11-20T03:39:07;15.20;;;4.37;;
9904;SDS011;4991;43.566;27.820;2022-11-20T03:41:40;12.27;;;4.93;;
9904;SDS011;4991;43.566;27.820;2022-11-20T03:44:07;8.43;;;4.07;;
9904;SDS011;4991;43.566;27.820;2022-11-20T03:46:34;13.33;;;4.40;;
9904;SDS011;4991;43.566;27.820;2022-11-20T03:49:00;9.97;;;4.20;;
9904;SDS011;4991;43.566;27.820;2022-11-20T03:51:32;11.63;;;3.97;;
9904;SDS011;4991;43.566;27.820;2022-11-20T03:54:01;12.73;;;3.80;;
9904;SDS011;4991;43.566;27.820;2022-11-20T03:56:30;9.30;;;4.23;;
9904;SDS011;4991;43.566;27.820;2022-11-20T03:58:57;8.60;;;4.03;;
9904;SDS011;4991;43.566;27.820;2022-11-20T04:01:25;13.60;;;5.13;;
9904;SDS011;4991;43.566;27.820;2022-11-20T04:03:52;8.80;;;4.20;;
9904;SDS011;4991;43.566;27.820;2022-11-20T04:06:23;13.50;;;4.20;;
9904;SDS011;4991;43.566;27.820;2022-11-20T04:08:51;10.07;;;4.17;;
9904;SDS011;4991;43.566;27.820;2022-11-20T04:11:19;7.03;;;3.70;;
9904;SDS011;4991;43.566;27.820;2022-11-20T04:13:50;8.67;;;3.80;;
9904;SDS011;4991;43.566;27.820;2022-11-20T04:16:17;13.20;;;4.63;;
9904;SDS011;4991;43.566;27.820;2022-11-20T04:18:43;11.07;;;3.90;;
9904;SDS011;4991;43.566;27.820;2022-11-20T04:21:10;14.33;;;5.03;;
9904;SDS011;4991;43.566;27.820;2022-11-20T04:23:36;12.60;;;4.33;;
9904;SDS011;4991;43.566;27.820;2022-11-20T04:26:05;9.97;;;3.83;;
9904;SDS011;4991;43.566;27.820;2022-11-20T04:28:32;15.13;;;5.43;;
9904;SDS011;4991;43.566;27.820;2022-11-20T04:31:04;12.20;;;4.50;;
9904;SDS011;4991;43.566;27.820;2022-11-20T04:33:31;9.37;;;5.27;;
9904;SDS011;4991;43.566;27.820;2022-11-20T04:36:07;12.00;;;4.17;;
9904;SDS011;4991;43.566;27.820;2022-11-20T04:38:35;9.60;;;4.10;;
9904;SDS011;4991;43.566;27.820;2022-11-20T04:41:02;10.30;;;4.07;;
9904;SDS011;4991;43.566;27.820;2022-11-20T04:43:30;19.10;;;4.53;;
9904;SDS011;4991;43.566;27.820;2022-11-20T04:45:57;11.07;;;4.13;;
9904;SDS011;4991;43.566;27.820;2022-11-20T04:48:23;9.40;;;4.53;;
9904;SDS011;4991;43.566;27.820;2022-11-20T04:50:51;8.17;;;3.97;;
9904;SDS011;4991;43.566;27.820;2022-11-20T04:53:16;9.20;;;4.13;;
9904;SDS011;4991;43.566;27.820;2022-11-20T04:55:42;14.13;;;4.40;;
9904;SDS011;4991;43.566;27.820;2022-11-20T04:58:08;6.73;;;3.67;;
9904;SDS011;4991;43.566;27.820;2022-11-20T05:00:34;12.23;;;5.13;;
9904;SDS011;4991;43.566;27.820;2022-11-20T05:02:59;13.53;;;4.60;;
9904;SDS011;4991;43.566;27.820;2022-11-20T05:05:25;12.00;;;4.57;;
9904;SDS011;4991;43.566;27.820;2022-11-20T05:07:51;19.23;;;5.23;;
9904;SDS011;4991;43.566;27.820;2022-11-20T05:10:17;13.47;;;5.00;;
9904;SDS011;4991;43.566;27.820;2022-11-20T05:12:42;14.53;;;5.07;;
9904;SDS011;4991;43.566;27.820;2022-11-20T05:15:08;11.77;;;4.97;;
9904;SDS011;4991;43.566;27.820;2022-11-20T05:17:34;8.27;;;3.70;;
9904;SDS011;4991;43.566;27.820;2022-11-20T05:19:59;8.87;;;4.00;;
9904;SDS011;4991;43.566;27.820;2022-11-20T05:22:25;13.10;;;4.37;;
9904;SDS011;4991;43.566;27.820;2022-11-20T05:24:51;9.97;;;4.63;;
9904;SDS011;4991;43.566;27.820;2022-11-20T05:27:16;9.10;;;4.33;;
9904;SDS011;4991;43.566;27.820;2022-11-20T05:29:42;10.43;;;4.30;;
9904;SDS011;4991;43.566;27.820;2022-11-20T05:32:07;12.97;;;4.10;;
9904;SDS011;4991;43.566;27.820;2022-11-20T05:34:35;16.97;;;5.53;;
9904;SDS011;4991;43.566;27.820;2022-11-20T05:37:01;10.63;;;3.67;;
9904;SDS011;4991;43.566;27.820;2022-11-20T05:39:28;8.07;;;3.13;;
9904;SDS011;4991;43.566;27.820;2022-11-20T05:41:54;11.70;;;3.73;;
9904;SDS011;4991;43.566;27.820;2022-11-20T05:44:38;13.73;;;3.90;;
9904;SDS011;4991;43.566;27.820;2022-11-20T05:47:04;8.87;;;3.73;;
9904;SDS011;4991;43.566;27.820;2022-11-20T05:49:30;13.50;;;7.03;;
9904;SDS011;4991;43.566;27.820;2022-11-20T05:51:55;13.43;;;4.17;;
9904;SDS011;4991;43.566;27.820;2022-11-20T05:54:21;13.63;;;4.43;;
9904;SDS011;4991;43.566;27.820;2022-11-20T05:56:46;11.63;;;3.83;;
9904;SDS011;4991;43.566;27.820;2022-11-20T05:59:12;8.47;;;4.07;;
9904;SDS011;4991;43.566;27.820;2022-11-20T06:01:38;9.20;;;3.23;;
9904;SDS011;4991;43.566;27.820;2022-11-20T06:04:03;12.63;;;4.37;;
9904;SDS011;4991;43.566;27.820;2022-11-20T06:06:29;13.30;;;3.83;;
9904;SDS011;4991;43.566;27.820;2022-11-20T06:08:55;12.40;;;4.80;;
9904;SDS011;4991;43.566;27.820;2022-11-20T06:11:21;9.03;;;3.20;;
9904;SDS011;4991;43.566;27.820;2022-11-20T06:13:47;8.53;;;4.00;;
9904;SDS011;4991;43.566;27.820;2022-11-20T06:16:14;11.33;;;3.80;;
9904;SDS011;4991;43.566;27.820;2022-11-20T06:18:41;9.60;;;3.90;;
9904;SDS011;4991;43.566;27.820;2022-11-20T06:21:11;10.83;;;3.57;;
9904;SDS011;4991;43.566;27.820;2022-11-20T06:23:39;14.03;;;3.53;;
9904;SDS011;4991;43.566;27.820;2022-11-20T06:26:06;16.43;;;3.87;;
9904;SDS011;4991;43.566;27.820;2022-11-20T06:28:33;12.13;;;3.20;;
9904;SDS011;4991;43.566;27.820;2022-11-20T06:30:59;14.00;;;3.87;;
9904;SDS011;4991;43.566;27.820;2022-11-20T06:33:25;15.67;;;4.87;;
9904;SDS011;4991;43.566;27.820;2022-11-20T06:35:51;10.50;;;3.87;;
9904;SDS011;4991;43.566;27.820;2022-11-20T06:38:17;10.43;;;3.97;;
9904;SDS011;4991;43.566;27.820;2022-11-20T06:40:42;11.73;;;3.60;;
9904;SDS011;4991;43.566;27.820;2022-11-20T06:43:09;7.80;;;3.50;;
9904;SDS011;4991;43.566;27.820;2022-11-20T06:45:35;9.43;;;3.30;;
9904;SDS011;4991;43.566;27.820;2022-11-20T06:48:01;7.80;;;3.87;;
9904;SDS011;4991;43.566;27.820;2022-11-20T06:50:28;7.63;;;3.00;;
9904;SDS011;4991;43.566;27.820;2022-11-20T06:52:54;8.87;;;3.70;;
9904;SDS011;4991;43.566;27.820;2022-11-20T06:55:19;10.43;;;3.10;;
9904;SDS011;4991;43.566;27.820;2022-11-20T06:57:45;11.27;;;3.27;;
9904;SDS011;4991;43.566;27.820;2022-11-20T07:00:11;6.57;;;2.90;;
9904;SDS011;4991;43.566;27.820;2022-11-20T07:02:37;7.17;;;2.50;;
9904;SDS011;4991;43.566;27.820;2022-11-20T07:05:02;5.57;;;2.50;;
9904;SDS011;4991;43.566;27.820;2022-11-20T07:07:29;9.40;;;2.87;;
9904;SDS011;4991;43.566;27.820;2022-11-20T07:09:55;8.53;;;2.87;;
9904;SDS011;4991;43.566;27.820;2022-11-20T07:12:20;5.57;;;2.30;;
9904;SDS011;4991;43.566;27.820;2022-11-20T07:14:46;7.10;;;2.80;;
9904;SDS011;4991;43.566;27.820;2022-11-20T07:17:12;8.27;;;2.57;;
9904;SDS011;4991;43.566;27.820;2022-11-20T07:19:38;9.60;;;2.57;;
9904;SDS011;4991;43.566;27.820;2022-11-20T07:22:04;8.10;;;3.00;;
9904;SDS011;4991;43.566;27.820;2022-11-20T07:24:29;7.10;;;2.57;;
9904;SDS011;4991;43.566;27.820;2022-11-20T07:26:55;9.83;;;2.90;;
9904;SDS011;4991;43.566;27.820;2022-11-20T07:29:21;6.37;;;2.67;;
9904;SDS011;4991;43.566;27.820;2022-11-20T07:31:46;6.27;;;2.77;;
9904;SDS011;4991;43.566;27.820;2022-11-20T07:34:12;7.97;;;2.60;;
9904;SDS011;4991;43.566;27.820;2022-11-20T07:36:37;9.37;;;3.40;;
9904;SDS011;4991;43.566;27.820;2022-11-20T07:39:04;10.23;;;3.53;;
9904;SDS011;4991;43.566;27.820;2022-11-20T07:41:29;9.10;;;2.90;;
9904;SDS011;4991;43.566;27.820;2022-11-20T07:43:55;10.17;;;3.23;;
9904;SDS011;4991;43.566;27.820;2022-11-20T07:46:21;7.37;;;2.80;;
9904;SDS011;4991;43.566;27.820;2022-11-20T07:48:46;10.40;;;2.83;;
9904;SDS011;4991;43.566;27.820;2022-11-20T07:51:12;10.00;;;3.47;;
9904;SDS011;4991;43.566;27.820;2022-11-20T07:53:39;8.23;;;3.20;;
9904;SDS011;4991;43.566;27.820;2022-11-20T07:56:05;8.77;;;3.63;;
9904;SDS011;4991;43.566;27.820;2022-11-20T07:58:32;10.57;;;3.37;;
9904;SDS011;4991;43.566;27.820;2022-11-20T08:01:03;8.93;;;3.30;;
9904;SDS011;4991;43.566;27.820;2022-11-20T08:03:32;12.17;;;3.20;;
9904;SDS011;4991;43.566;27.820;2022-11-20T08:05:59;12.30;;;3.47;;
9904;SDS011;4991;43.566;27.820;2022-11-20T08:08:26;11.90;;;3.83;;
9904;SDS011;4991;43.566;27.820;2022-11-20T08:10:52;9.97;;;3.57;;
9904;SDS011;4991;43.566;27.820;2022-11-20T08:13:38;10.90;;;3.40;;
9904;SDS011;4991;43.566;27.820;2022-11-20T08:16:23;10.77;;;3.53;;
9904;SDS011;4991;43.566;27.820;2022-11-20T08:18:49;6.70;;;3.00;;
9904;SDS011;4991;43.566;27.820;2022-11-20T08:21:14;8.80;;;2.80;;
9904;SDS011;4991;43.566;27.820;2022-11-20T08:23:40;12.43;;;2.97;;
9904;SDS011;4991;43.566;27.820;2022-11-20T08:26:07;8.03;;;3.23;;
9904;SDS011;4991;43.566;27.820;2022-11-20T08:28:34;10.27;;;3.43;;
9904;SDS011;4991;43.566;27.820;2022-11-20T08:31:02;8.40;;;3.00;;
9904;SDS011;4991;43.566;27.820;2022-11-20T08:33:29;5.90;;;3.13;;
9904;SDS011;4991;43.566;27.820;2022-11-20T08:36:03;9.53;;;3.77;;
9904;SDS011;4991;43.566;27.820;2022-11-20T08:38:31;11.27;;;3.03;;
9904;SDS011;4991;43.566;27.820;2022-11-20T08:41:01;4.83;;;2.67;;
9904;SDS011;4991;43.566;27.820;2022-11-20T08:43:48;8.73;;;3.13;;
9904;SDS011;4991;43.566;27.820;2022-11-20T08:46:16;4.73;;;2.77;;
9904;SDS011;4991;43.566;27.820;2022-11-20T08:48:42;11.53;;;3.10;;
9904;SDS011;4991;43.566;27.820;2022-11-20T08:51:09;12.90;;;3.33;;
9904;SDS011;4991;43.566;27.820;2022-11-20T08:53:36;9.30;;;3.20;;
9904;SDS011;4991;43.566;27.820;2022-11-20T08:56:02;7.97;;;3.07;;
9904;SDS011;4991;43.566;27.820;2022-11-20T08:58:28;8.80;;;2.97;;
9904;SDS011;4991;43.566;27.820;2022-11-20T09:00:54;14.63;;;3.43;;
9904;SDS011;4991;43.566;27.820;2022-11-20T09:03:19;13.57;;;3.33;;
9904;SDS011;4991;43.566;27.820;2022-11-20T09:05:45;12.37;;;3.57;;
9904;SDS011;4991;43.566;27.820;2022-11-20T09:08:11;6.20;;;2.67;;
9904;SDS011;4991;43.566;27.820;2022-11-20T09:10:37;3.20;;;2.03;;
9904;SDS011;4991;43.566;27.820;2022-11-20T09:13:06;11.77;;;3.03;;
9904;SDS011;4991;43.566;27.820;2022-11-20T09:15:32;10.20;;;3.60;;
9904;SDS011;4991;43.566;27.820;2022-11-20T09:18:00;17.53;;;3.83;;
9904;SDS011;4991;43.566;27.820;2022-11-20T09:20:28;4.67;;;2.53;;
9904;SDS011;4991;43.566;27.820;2022-11-20T09:22:55;13.13;;;3.07;;
9904;SDS011;4991;43.566;27.820;2022-11-20T09:25:21;10.23;;;2.60;;
9904;SDS011;4991;43.566;27.820;2022-11-20T09:27:47;9.07;;;3.10;;
9904;SDS011;4991;43.566;27.820;2022-11-20T09:30:13;8.57;;;3.10;;
9904;SDS011;4991;43.566;27.820;2022-11-20T09:32:40;8.37;;;2.93;;
9904;SDS011;4991;43.566;27.820;2022-11-20T09:35:06;13.37;;;3.37;;
9904;SDS011;4991;43.566;27.820;2022-11-20T09:37:33;11.07;;;4.77;;
9904;SDS011;4991;43.566;27.820;2022-11-20T09:39:58;7.63;;;2.97;;
9904;SDS011;4991;43.566;27.820;2022-11-20T09:42:30;6.90;;;2.40;;
9904;SDS011;4991;43.566;27.820;2022-11-20T09:50:46;13.57;;;3.03;;
9904;SDS011;4991;43.566;27.820;2022-11-20T09:56:09;7.93;;;3.57;;
9904;SDS011;4991;43.566;27.820;2022-11-20T09:58:44;12.70;;;3.50;;
9904;SDS011;4991;43.566;27.820;2022-11-20T10:01:19;13.70;;;3.13;;
9904;SDS011;4991;43.566;27.820;2022-11-20T10:06:23;11.30;;;3.23;;
9904;SDS011;4991;43.566;27.820;2022-11-20T10:21:55;8.40;;;3.13;;
9904;SDS011;4991;43.566;27.820;2022-11-20T10:24:33;9.43;;;2.90;;
9904;SDS011;4991;43.566;27.820;2022-11-20T10:27:16;13.93;;;3.50;;
9904;SDS011;4991;43.566;27.820;2022-11-20T10:30:08;11.03;;;3.77;;
9904;SDS011;4991;43.566;27.820;2022-11-20T10:32:48;9.20;;;3.33;;
9904;SDS011;4991;43.566;27.820;2022-11-20T10:38:09;14.60;;;4.53;;
9904;SDS011;4991;43.566;27.820;2022-11-20T10:40:45;10.83;;;3.53;;
9904;SDS011;4991;43.566;27.820;2022-11-20T10:43:17;13.70;;;4.03;;
9904;SDS011;4991;43.566;27.820;2022-11-20T10:48:42;11.03;;;3.43;;
9904;SDS011;4991;43.566;27.820;2022-11-20T10:53:58;12.80;;;3.57;;
9904;SDS011;4991;43.566;27.820;2022-11-20T10:59:11;17.63;;;4.23;;
9904;SDS011;4991;43.566;27.820;2022-11-20T11:01:44;13.53;;;3.30;;
9904;SDS011;4991;43.566;27.820;2022-11-20T11:04:23;9.10;;;3.37;;
9904;SDS011;4991;43.566;27.820;2022-11-20T11:07:43;12.48;;;3.30;;
9904;SDS011;4991;43.566;27.820;2022-11-20T11:09:52;12.77;;;4.27;;
9904;SDS011;4991;43.566;27.820;2022-11-20T11:12:20;13.13;;;3.93;;
9904;SDS011;4991;43.566;27.820;2022-11-20T11:14:52;22.40;;;8.77;;
9904;SDS011;4991;43.566;27.820;2022-11-20T11:20:03;16.10;;;11.23;;
9904;SDS011;4991;43.566;27.820;2022-11-20T11:22:33;16.87;;;13.03;;
9904;SDS011;4991;43.566;27.820;2022-11-20T11:25:09;22.13;;;15.67;;
9904;SDS011;4991;43.566;27.820;2022-11-20T11:27:49;23.27;;;17.17;;
9904;SDS011;4991;43.566;27.820;2022-11-20T11:30:16;20.50;;;16.30;;
9904;SDS011;4991;43.566;27.820;2022-11-20T11:32:43;25.10;;;18.63;;
9904;SDS011;4991;43.566;27.820;2022-11-20T11:35:24;29.33;;;19.57;;
9904;SDS011;4991;43.566;27.820;2022-11-20T11:37:53;27.67;;;20.37;;
9904;SDS011;4991;43.566;27.820;2022-11-20T11:40:27;30.57;;;20.07;;
9904;SDS011;4991;43.566;27.820;2022-11-20T11:42:58;31.23;;;20.70;;
9904;SDS011;4991;43.566;27.820;2022-11-20T11:45:26;30.70;;;20.10;;
9904;SDS011;4991;43.566;27.820;2022-11-20T11:47:53;27.77;;;19.20;;
9904;SDS011;4991;43.566;27.820;2022-11-20T11:50:26;31.43;;;21.40;;
9904;SDS011;4991;43.566;27.820;2022-11-20T11:53:36;38.63;;;25.50;;
9904;SDS011;4991;43.566;27.820;2022-11-20T11:55:49;38.87;;;26.57;;
9904;SDS011;4991;43.566;27.820;2022-11-20T12:01:20;35.63;;;24.23;;
9904;SDS011;4991;43.566;27.820;2022-11-20T12:06:53;29.63;;;21.00;;
9904;SDS011;4991;43.566;27.820;2022-11-20T12:09:27;27.97;;;20.30;;
9904;SDS011;4991;43.566;27.820;2022-11-20T12:12:05;22.93;;;17.87;;
9904;SDS011;4991;43.566;27.820;2022-11-20T12:17:07;27.27;;;18.43;;
9904;SDS011;4991;43.566;27.820;2022-11-20T12:19:35;23.50;;;16.03;;
9904;SDS011;4991;43.566;27.820;2022-11-20T12:30:20;14.93;;;11.20;;
9904;SDS011;4991;43.566;27.820;2022-11-20T12:35:49;19.53;;;13.07;;
9904;SDS011;4991;43.566;27.820;2022-11-20T12:40:59;19.27;;;12.23;;
9904;SDS011;4991;43.566;27.820;2022-11-20T12:43:26;15.97;;;10.63;;
9904;SDS011;4991;43.566;27.820;2022-11-20T12:56:41;21.40;;;13.90;;
9904;SDS011;4991;43.566;27.820;2022-11-20T13:01:53;26.97;;;13.87;;
9904;SDS011;4991;43.566;27.820;2022-11-20T13:04:33;19.40;;;14.03;;
9904;SDS011;4991;43.566;27.820;2022-11-20T13:07:12;20.77;;;12.97;;
9904;SDS011;4991;43.566;27.820;2022-11-20T13:09:47;20.43;;;12.57;;
9904;SDS011;4991;43.566;27.820;2022-11-20T13:17:31;15.67;;;9.30;;
9904;SDS011;4991;43.566;27.820;2022-11-20T13:20:06;19.13;;;10.27;;
9904;SDS011;4991;43.566;27.820;2022-11-20T13:22:45;23.70;;;15.03;;
9904;SDS011;4991;43.566;27.820;2022-11-20T13:25:25;19.30;;;13.10;;
9904;SDS011;4991;43.566;27.820;2022-11-20T13:27:56;20.23;;;13.43;;
9904;SDS011;4991;43.566;27.820;2022-11-20T13:30:24;26.50;;;17.77;;
9904;SDS011;4991;43.566;27.820;2022-11-20T13:32:55;35.93;;;20.57;;
9904;SDS011;4991;43.566;27.820;2022-11-20T13:35:37;31.73;;;19.50;;
9904;SDS011;4991;43.566;27.820;2022-11-20T13:38:10;31.63;;;20.90;;
9904;SDS011;4991;43.566;27.820;2022-11-20T13:40:53;32.03;;;22.03;;
9904;SDS011;4991;43.566;27.820;2022-11-20T13:43:28;30.83;;;21.30;;
9904;SDS011;4991;43.566;27.820;2022-11-20T13:46:05;40.83;;;28.07;;
9904;SDS011;4991;43.566;27.820;2022-11-20T13:48:42;39.77;;;26.07;;
9904;SDS011;4991;43.566;27.820;2022-11-20T13:54:29;31.27;;;20.20;;
9904;SDS011;4991;43.566;27.820;2022-11-20T14:00:17;34.93;;;21.93;;
9904;SDS011;4991;43.566;27.820;2022-11-20T14:02:57;33.60;;;22.37;;
9904;SDS011;4991;43.566;27.820;2022-11-20T14:05:39;30.50;;;21.23;;
9904;SDS011;4991;43.566;27.820;2022-11-20T14:08:21;29.43;;;21.37;;
9904;SDS011;4991;43.566;27.820;2022-11-20T14:11:02;24.17;;;18.83;;
9904;SDS011;4991;43.566;27.820;2022-11-20T14:13:38;29.20;;;17.23;;
9904;SDS011;4991;43.566;27.820;2022-11-20T14:16:03;27.97;;;17.73;;
9904;SDS011;4991;43.566;27.820;2022-11-20T14:18:29;27.33;;;15.47;;
9904;SDS011;4991;43.566;27.820;2022-11-20T14:20:56;20.40;;;15.93;;
9904;SDS011;4991;43.566;27.820;2022-11-20T14:23:26;24.07;;;16.33;;
9904;SDS011;4991;43.566;27.820;2022-11-20T14:25:54;28.17;;;17.83;;
9904;SDS011;4991;43.566;27.820;2022-11-20T14:28:27;26.27;;;17.97;;
9904;SDS011;4991;43.566;27.820;2022-11-20T14:30:54;21.30;;;16.13;;
9904;SDS011;4991;43.566;27.820;2022-11-20T14:33:22;23.30;;;15.70;;
9904;SDS011;4991;43.566;27.820;2022-11-20T14:35:56;23.13;;;15.07;;
9904;SDS011;4991;43.566;27.820;2022-11-20T14:38:27;24.80;;;15.30;;
9904;SDS011;4991;43.566;27.820;2022-11-20T14:41:06;26.13;;;17.60;;
9904;SDS011;4991;43.566;27.820;2022-11-20T14:43:33;37.77;;;24.27;;
9904;SDS011;4991;43.566;27.820;2022-11-20T14:46:02;37.83;;;25.20;;
9904;SDS011;4991;43.566;27.820;2022-11-20T14:48:46;40.60;;;29.37;;
9904;SDS011;4991;43.566;27.820;2022-11-20T14:54:16;40.60;;;28.10;;
9904;SDS011;4991;43.566;27.820;2022-11-20T14:57:02;40.57;;;25.87;;
9904;SDS011;4991;43.566;27.820;2022-11-20T14:59:29;37.40;;;26.17;;
9904;SDS011;4991;43.566;27.820;2022-11-20T15:01:58;38.83;;;25.60;;
9904;SDS011;4991;43.566;27.820;2022-11-20T15:04:26;47.23;;;27.67;;
9904;SDS011;4991;43.566;27.820;2022-11-20T15:06:53;45.33;;;31.40;;
9904;SDS011;4991;43.566;27.820;2022-11-20T15:09:20;38.97;;;26.10;;
9904;SDS011;4991;43.566;27.820;2022-11-20T15:11:55;40.00;;;26.87;;
9904;SDS011;4991;43.566;27.820;2022-11-20T15:14:24;43.83;;;30.47;;
9904;SDS011;4991;43.566;27.820;2022-11-20T15:16:52;50.83;;;32.93;;
9904;SDS011;4991;43.566;27.820;2022-11-20T15:19:19;40.97;;;29.80;;
9904;SDS011;4991;43.566;27.820;2022-11-20T15:21:47;37.63;;;30.10;;
9904;SDS011;4991;43.566;27.820;2022-11-20T15:24:13;38.17;;;29.40;;
9904;SDS011;4991;43.566;27.820;2022-11-20T15:26:39;41.70;;;28.93;;
9904;SDS011;4991;43.566;27.820;2022-11-20T15:29:10;34.03;;;26.70;;
9904;SDS011;4991;43.566;27.820;2022-11-20T15:31:38;30.93;;;22.23;;
9904;SDS011;4991;43.566;27.820;2022-11-20T15:34:15;28.50;;;20.73;;
9904;SDS011;4991;43.566;27.820;2022-11-20T15:36:42;26.73;;;20.03;;
9904;SDS011;4991;43.566;27.820;2022-11-20T15:39:08;20.03;;;15.50;;
9904;SDS011;4991;43.566;27.820;2022-11-20T15:41:34;26.33;;;16.90;;
9904;SDS011;4991;43.566;27.820;2022-11-20T15:44:01;26.87;;;16.23;;
9904;SDS011;4991;43.566;27.820;2022-11-20T15:46:28;19.73;;;13.13;;
9904;SDS011;4991;43.566;27.820;2022-11-20T15:49:00;12.77;;;9.13;;
9904;SDS011;4991;43.566;27.820;2022-11-20T15:51:29;12.57;;;9.70;;
9904;SDS011;4991;43.566;27.820;2022-11-20T15:53:58;15.73;;;11.07;;
9904;SDS011;4991;43.566;27.820;2022-11-20T15:56:24;12.80;;;10.77;;
9904;SDS011;4991;43.566;27.820;2022-11-20T15:58:50;12.27;;;9.03;;
9904;SDS011;4991;43.566;27.820;2022-11-20T16:01:17;14.33;;;10.97;;
9904;SDS011;4991;43.566;27.820;2022-11-20T16:03:44;15.70;;;11.37;;
9904;SDS011;4991;43.566;27.820;2022-11-20T16:06:10;24.87;;;14.47;;
9904;SDS011;4991;43.566;27.820;2022-11-20T16:08:36;17.20;;;12.27;;
9904;SDS011;4991;43.566;27.820;2022-11-20T16:11:02;17.10;;;12.37;;
9904;SDS011;4991;43.566;27.820;2022-11-20T16:13:28;16.50;;;11.47;;
9904;SDS011;4991;43.566;27.820;2022-11-20T16:16:17;12.83;;;10.70;;
9904;SDS011;4991;43.566;27.820;2022-11-20T16:18:49;16.13;;;11.93;;
9904;SDS011;4991;43.566;27.820;2022-11-20T16:21:14;17.10;;;11.80;;
9904;SDS011;4991;43.566;27.820;2022-11-20T16:23:40;14.97;;;11.53;;
9904;SDS011;4991;43.566;27.820;2022-11-20T16:26:14;11.63;;;10.43;;
9904;SDS011;4991;43.566;27.820;2022-11-20T16:28:42;16.70;;;13.03;;
9904;SDS011;4991;43.566;27.820;2022-11-20T16:31:11;15.57;;;11.37;;
9904;SDS011;4991;43.566;27.820;2022-11-20T16:33:39;15.30;;;12.83;;